Time;durP1;ratioP1;P1;durP2;ratioP2;P2;SDS_P1;SDS_P2;PMS_P1;PMS_P2;Temp;Humidity;BMP_temperature;BMP_pressure;BME280_temperature;BME280_humidity;BME280_pressure;Samples;Min_cycle;Max_cycle;Signal;HPM_P1;HPM_P2
2023/09/07 00:02:14;;;;;;;1.83;0.50;;;12.00;99.90;;;;;;5040782;28;20556;-86
2023/09/07 00:04:43;;;;;;;1.55;0.57;;;12.00;99.90;;;;;;5037464;28;20284;-86
2023/09/07 00:07:10;;;;;;;4.45;0.80;;;11.90;99.90;;;;;;5034905;28;20281;-86
2023/09/07 00:09:38;;;;;;;2.22;0.85;;;11.80;99.90;;;;;;5040041;28;20190;-85
2023/09/07 00:12:06;;;;;;;3.03;0.65;;;11.70;99.90;;;;;;5037829;28;20699;-85
2023/09/07 00:14:33;;;;;;;2.72;0.60;;;11.80;99.90;;;;;;5032429;28;20225;-86
2023/09/07 00:17:01;;;;;;;3.30;0.90;;;11.80;99.90;;;;;;5033229;28;20696;-87
2023/09/07 00:19:31;;;;;;;4.82;0.80;;;11.80;99.90;;;;;;5033295;28;20570;-87
2023/09/07 00:22:00;;;;;;;7.35;1.00;;;11.80;99.90;;;;;;5028945;28;20537;-85
2023/09/07 00:24:28;;;;;;;4.93;1.00;;;11.80;99.90;;;;;;5037705;28;20190;-86
2023/09/07 00:26:56;;;;;;;1.27;0.60;;;11.90;99.90;;;;;;5036779;28;20210;-86
2023/09/07 00:29:23;;;;;;;5.95;0.80;;;11.80;99.90;;;;;;5041603;28;20659;-86
2023/09/07 00:31:52;;;;;;;7.18;0.77;;;11.80;99.90;;;;;;5034417;28;20201;-85
2023/09/07 00:34:20;;;;;;;2.13;0.70;;;11.70;99.90;;;;;;5041042;28;20266;-84
2023/09/07 00:36:47;;;;;;;2.80;0.80;;;11.60;99.90;;;;;;5035475;28;20209;-84
2023/09/07 00:39:15;;;;;;;3.15;0.80;;;11.70;99.90;;;;;;5030082;28;20265;-85
2023/09/07 00:41:42;;;;;;;4.57;0.70;;;11.70;99.90;;;;;;5035017;28;20202;-84
2023/09/07 00:44:10;;;;;;;7.93;0.73;;;11.70;99.90;;;;;;5037501;28;20190;-85
2023/09/07 00:46:37;;;;;;;5.63;0.80;;;11.70;99.90;;;;;;5034489;28;20225;-84
2023/09/07 00:49:05;;;;;;;4.28;0.82;;;11.70;99.90;;;;;;5045047;28;20264;-85
2023/09/07 00:51:34;;;;;;;3.50;0.68;;;11.70;99.90;;;;;;5026979;28;20197;-85
2023/09/07 00:54:01;;;;;;;3.00;0.90;;;11.60;99.90;;;;;;5032420;28;20190;-85
2023/09/07 00:56:29;;;;;;;2.22;0.65;;;11.60;99.90;;;;;;5044680;28;20193;-85
2023/09/07 00:59:01;;;;;;;3.28;0.80;;;11.60;99.90;;;;;;5035294;28;20541;-84
2023/09/07 01:01:31;;;;;;;3.15;0.65;;;11.60;99.90;;;;;;5027753;28;20213;-86
2023/09/07 01:03:58;;;;;;;2.38;0.70;;;11.60;99.90;;;;;;5020557;28;20193;-85
2023/09/07 01:06:38;;;;;;;4.38;0.90;;;11.60;99.90;;;;;;5037207;28;20205;-85
2023/09/07 01:09:18;;;;;;;3.13;0.57;;;11.50;99.90;;;;;;5036133;28;20217;-85
2023/09/07 01:11:46;;;;;;;3.30;0.80;;;11.50;99.90;;;;;;5038851;28;20220;-85
2023/09/07 01:14:14;;;;;;;2.60;0.70;;;11.60;99.90;;;;;;5039864;28;20754;-85
2023/09/07 01:16:41;;;;;;;3.38;0.95;;;11.60;99.90;;;;;;5039307;28;20189;-85
2023/09/07 01:19:10;;;;;;;5.18;0.70;;;11.50;99.90;;;;;;5032716;28;20602;-85
2023/09/07 01:21:39;;;;;;;4.10;0.80;;;11.30;99.90;;;;;;5039321;28;20206;-85
2023/09/07 01:24:09;;;;;;;2.45;0.70;;;11.40;99.90;;;;;;5027551;28;20648;-85
2023/09/07 01:26:40;;;;;;;4.80;0.80;;;11.30;99.90;;;;;;5026545;28;20194;-85
2023/09/07 01:29:11;;;;;;;3.85;0.80;;;11.30;99.90;;;;;;5043314;28;20189;-85
2023/09/07 01:31:40;;;;;;;2.17;0.80;;;11.30;99.90;;;;;;5032599;28;20178;-84
2023/09/07 01:34:08;;;;;;;2.92;0.90;;;11.30;99.90;;;;;;5038218;28;20279;-86
2023/09/07 01:36:36;;;;;;;2.90;0.90;;;11.20;99.90;;;;;;5042338;28;20191;-85
2023/09/07 01:39:05;;;;;;;3.80;0.73;;;11.30;99.90;;;;;;5047931;28;20217;-85
2023/09/07 01:41:33;;;;;;;5.10;0.80;;;11.30;99.90;;;;;;5037703;28;20217;-85
2023/09/07 01:44:01;;;;;;;4.55;0.70;;;11.30;99.90;;;;;;5031898;28;20189;-85
2023/09/07 01:46:29;;;;;;;3.17;0.60;;;11.30;99.90;;;;;;5033317;28;20190;-86
2023/09/07 01:48:56;;;;;;;2.15;0.80;;;11.30;99.90;;;;;;5030103;28;20192;-86
2023/09/07 01:51:27;;;;;;;4.85;0.93;;;11.30;99.90;;;;;;5030160;28;20212;-85
2023/09/07 01:56:56;;;;;;;3.42;0.80;;;11.20;99.90;;;;;;4958750;28;20230;-88
2023/09/07 01:59:24;;;;;;;1.60;0.70;;;11.20;99.90;;;;;;4957764;28;20294;-90
2023/09/07 02:01:51;;;;;;;3.50;0.80;;;11.20;99.90;;;;;;4974514;28;20196;-90
2023/09/07 02:04:19;;;;;;;4.85;0.80;;;11.20;99.90;;;;;;4958274;28;20188;-89
2023/09/07 02:06:47;;;;;;;2.65;0.70;;;11.20;99.90;;;;;;4945007;28;20647;-89
2023/09/07 02:09:14;;;;;;;3.53;0.75;;;11.20;99.90;;;;;;4948489;28;20208;-88
2023/09/07 02:11:42;;;;;;;1.95;0.65;;;11.20;99.90;;;;;;4955845;28;20275;-89
2023/09/07 02:14:10;;;;;;;3.90;0.68;;;11.10;99.90;;;;;;4956651;28;20204;-89
2023/09/07 02:16:39;;;;;;;1.23;0.68;;;11.10;99.90;;;;;;4972559;28;20184;-89
2023/09/07 02:19:06;;;;;;;4.82;0.63;;;11.10;99.90;;;;;;4954236;29;20278;-89
2023/09/07 02:21:34;;;;;;;2.97;0.70;;;11.10;99.90;;;;;;4941064;28;20216;-90
2023/09/07 02:24:03;;;;;;;0.88;0.52;;;11.00;99.90;;;;;;4974956;28;20188;-89
2023/09/07 02:26:30;;;;;;;1.00;0.57;;;10.90;99.90;;;;;;4954555;29;20188;-90
2023/09/07 02:28:58;;;;;;;2.70;0.75;;;10.80;99.90;;;;;;4933154;28;20291;-90
2023/09/07 02:31:26;;;;;;;3.45;0.70;;;10.70;99.90;;;;;;4957250;28;20224;-90
2023/09/07 02:33:54;;;;;;;3.33;0.60;;;10.50;99.90;;;;;;4965045;28;20227;-90
2023/09/07 02:36:21;;;;;;;1.83;0.65;;;10.40;99.90;;;;;;4974465;28;20681;-89
2023/09/07 02:38:49;;;;;;;5.03;0.90;;;10.40;99.90;;;;;;4952552;28;20220;-89
2023/09/07 02:41:17;;;;;;;2.35;0.70;;;10.30;99.90;;;;;;4940315;28;20203;-89
2023/09/07 02:43:44;;;;;;;2.20;0.60;;;10.50;99.90;;;;;;4953107;29;20204;-89
2023/09/07 02:46:12;;;;;;;4.45;0.60;;;10.60;99.90;;;;;;4922109;28;20553;-87
2023/09/07 02:48:39;;;;;;;1.92;0.80;;;10.70;99.90;;;;;;4953893;28;20200;-88
2023/09/07 02:51:07;;;;;;;0.85;0.60;;;10.80;99.90;;;;;;4953360;29;20373;-89
2023/09/07 02:53:35;;;;;;;1.88;0.77;;;10.70;99.90;;;;;;4968309;28;20196;-89
2023/09/07 02:56:04;;;;;;;4.72;0.80;;;10.70;99.90;;;;;;4966724;28;20242;-90
2023/09/07 02:58:33;;;;;;;4.85;0.90;;;10.70;99.90;;;;;;4976473;28;20623;-89
2023/09/07 03:01:08;;;;;;;4.57;0.77;;;10.70;99.90;;;;;;4968455;28;20761;-89
2023/09/07 03:03:37;;;;;;;3.22;0.60;;;10.70;99.90;;;;;;4971267;28;20302;-89
2023/09/07 03:06:09;;;;;;;2.28;0.70;;;10.70;99.90;;;;;;4971482;28;20279;-89
2023/09/07 03:08:36;;;;;;;3.08;0.70;;;10.60;99.90;;;;;;4972431;28;20570;-89
2023/09/07 03:11:05;;;;;;;0.65;0.40;;;10.60;99.90;;;;;;4955822;28;20226;-88
2023/09/07 03:13:33;;;;;;;1.00;0.55;;;10.60;99.90;;;;;;4971708;28;20247;-88
2023/09/07 03:16:03;;;;;;;1.77;0.70;;;10.60;99.90;;;;;;4954845;28;20202;-88
2023/09/07 03:18:31;;;;;;;3.35;0.68;;;10.60;99.90;;;;;;4953291;28;21069;-89
2023/09/07 03:21:01;;;;;;;4.65;0.82;;;10.60;99.90;;;;;;4956519;28;20192;-87
2023/09/07 03:23:30;;;;;;;5.55;0.70;;;10.60;99.90;;;;;;4951627;29;20923;-88
2023/09/07 03:25:58;;;;;;;2.70;0.68;;;10.50;99.90;;;;;;4968683;28;20607;-85
2023/09/07 03:28:27;;;;;;;4.38;0.85;;;10.50;99.90;;;;;;4951736;28;20185;-85
2023/09/07 03:30:55;;;;;;;1.45;0.70;;;10.40;99.90;;;;;;4969197;28;20214;-87
2023/09/07 03:33:23;;;;;;;3.03;0.60;;;10.40;99.90;;;;;;4952096;28;20196;-86
2023/09/07 03:35:51;;;;;;;2.33;0.70;;;10.30;99.90;;;;;;4957282;28;20589;-85
2023/09/07 03:38:19;;;;;;;3.42;0.80;;;10.20;99.90;;;;;;4978290;28;20219;-87
2023/09/07 03:40:46;;;;;;;0.90;0.60;;;10.20;99.90;;;;;;4967693;28;20188;-87
2023/09/07 03:43:15;;;;;;;2.75;0.60;;;10.20;99.90;;;;;;4954549;28;20271;-88
2023/09/07 03:45:42;;;;;;;3.50;0.88;;;10.10;99.90;;;;;;4956532;28;20192;-87
2023/09/07 03:48:10;;;;;;;2.47;0.98;;;9.80;99.90;;;;;;4970851;28;20192;-87
2023/09/07 03:50:38;;;;;;;4.30;0.70;;;9.70;99.90;;;;;;4951873;28;20192;-88
2023/09/07 03:53:06;;;;;;;1.35;0.68;;;9.80;99.90;;;;;;4956177;28;20203;-87
2023/09/07 03:55:44;;;;;;;1.42;0.60;;;10.00;99.90;;;;;;4959634;28;20275;-86
2023/09/07 03:58:15;;;;;;;2.50;0.57;;;10.00;99.90;;;;;;4940053;29;20208;-87
2023/09/07 04:00:44;;;;;;;7.05;0.70;;;10.00;99.90;;;;;;4960174;28;20192;-88
2023/09/07 04:03:12;;;;;;;1.63;0.80;;;10.00;99.90;;;;;;4942605;28;20678;-87
2023/09/07 04:05:39;;;;;;;0.75;0.50;;;10.00;99.90;;;;;;4945532;28;20196;-87
2023/09/07 04:08:07;;;;;;;2.03;0.57;;;10.00;99.90;;;;;;4962063;28;20212;-87
2023/09/07 04:10:38;;;;;;;12.85;0.77;;;10.10;99.90;;;;;;4937837;28;20626;-86
2023/09/07 04:13:06;;;;;;;1.63;0.85;;;10.00;99.90;;;;;;4952963;28;20220;-87
2023/09/07 04:15:45;;;;;;;1.60;0.65;;;10.00;99.90;;;;;;4969423;28;20579;-87
2023/09/07 04:18:16;;;;;;;1.25;0.63;;;10.00;99.90;;;;;;4949449;28;20212;-89
2023/09/07 04:20:45;;;;;;;2.45;0.60;;;10.00;99.90;;;;;;4955058;28;20203;-85
2023/09/07 04:23:14;;;;;;;1.45;0.60;;;10.10;99.90;;;;;;4965261;28;20279;-85
2023/09/07 04:25:42;;;;;;;1.08;0.60;;;10.00;99.90;;;;;;4951025;28;20880;-87
2023/09/07 04:28:11;;;;;;;2.53;0.80;;;10.10;99.90;;;;;;4964694;28;20270;-86
2023/09/07 04:30:40;;;;;;;1.40;0.50;;;10.20;99.90;;;;;;4950463;29;20676;-87
2023/09/07 04:33:08;;;;;;;2.60;0.70;;;10.10;99.90;;;;;;4959259;28;20707;-88
2023/09/07 04:35:37;;;;;;;3.58;0.90;;;10.10;99.90;;;;;;4950622;28;20200;-87
2023/09/07 04:38:06;;;;;;;1.90;0.70;;;10.10;99.90;;;;;;4935254;28;20213;-87
2023/09/07 04:40:34;;;;;;;1.83;0.60;;;10.10;99.90;;;;;;4959005;28;20749;-88
2023/09/07 04:43:01;;;;;;;2.65;0.60;;;10.10;99.90;;;;;;4963365;28;20199;-86
2023/09/07 04:45:29;;;;;;;8.98;1.00;;;10.20;99.90;;;;;;4941342;28;20212;-87
2023/09/07 04:47:56;;;;;;;2.58;0.75;;;10.20;99.90;;;;;;4955864;28;20619;-86
2023/09/07 04:50:24;;;;;;;4.32;0.75;;;10.30;99.90;;;;;;4952455;28;20201;-87
2023/09/07 04:52:52;;;;;;;3.22;0.60;;;10.30;99.90;;;;;;4960571;28;20199;-86
2023/09/07 04:55:20;;;;;;;1.33;0.60;;;10.40;99.90;;;;;;4944386;29;20284;-87
2023/09/07 04:57:47;;;;;;;3.40;0.60;;;10.40;99.90;;;;;;4943702;29;20217;-87
2023/09/07 05:00:15;;;;;;;2.10;0.70;;;10.40;99.90;;;;;;4914790;29;20224;-87
2023/09/07 05:02:44;;;;;;;1.63;0.65;;;10.40;99.90;;;;;;4939651;29;20596;-89
2023/09/07 05:05:11;;;;;;;2.83;0.57;;;10.40;99.90;;;;;;4941806;29;20284;-89
2023/09/07 05:07:39;;;;;;;3.13;0.70;;;10.40;99.90;;;;;;4932126;29;20193;-89
2023/09/07 05:10:12;;;;;;;2.05;0.60;;;10.40;99.90;;;;;;4915764;29;20192;-88
2023/09/07 05:12:40;;;;;;;2.90;0.80;;;10.30;99.90;;;;;;4923233;29;20197;-88
2023/09/07 05:15:09;;;;;;;2.15;0.77;;;10.20;99.90;;;;;;4933637;29;20231;-89
2023/09/07 05:17:38;;;;;;;5.32;0.90;;;10.20;99.90;;;;;;4919135;29;20220;-89
2023/09/07 05:20:06;;;;;;;3.05;0.80;;;10.20;99.90;;;;;;4920480;29;21008;-89
2023/09/07 05:22:37;;;;;;;5.18;0.88;;;10.20;99.90;;;;;;4918236;29;20197;-85
2023/09/07 05:25:05;;;;;;;3.65;1.10;;;10.20;99.90;;;;;;4917551;29;20264;-85
2023/09/07 05:27:34;;;;;;;5.43;1.00;;;10.30;99.90;;;;;;4931990;29;20208;-86
2023/09/07 05:30:03;;;;;;;1.67;0.80;;;10.30;99.90;;;;;;4930781;29;20197;-85
2023/09/07 05:32:31;;;;;;;6.35;0.90;;;10.30;99.90;;;;;;4943878;29;20203;-86
2023/09/07 05:34:58;;;;;;;2.78;1.00;;;10.30;99.90;;;;;;4931590;29;20193;-86
2023/09/07 05:37:26;;;;;;;3.60;0.90;;;10.40;99.90;;;;;;4940594;29;20284;-85
2023/09/07 05:39:53;;;;;;;5.63;0.90;;;10.40;99.90;;;;;;4923164;29;20634;-87
2023/09/07 05:42:21;;;;;;;4.85;0.70;;;10.50;99.90;;;;;;4927358;29;20292;-86
2023/09/07 05:44:48;;;;;;;2.50;0.80;;;10.60;99.90;;;;;;4943678;29;20280;-86
2023/09/07 05:47:17;;;;;;;3.00;0.70;;;10.60;99.90;;;;;;4939435;29;20677;-85
2023/09/07 05:49:45;;;;;;;3.80;0.80;;;10.80;99.90;;;;;;4930978;29;20251;-87
2023/09/07 05:52:12;;;;;;;4.85;0.93;;;10.80;99.90;;;;;;4915967;29;20279;-86
2023/09/07 05:54:40;;;;;;;5.05;0.93;;;10.90;99.90;;;;;;4932741;29;20232;-86
2023/09/07 05:57:07;;;;;;;3.45;0.85;;;11.00;99.90;;;;;;4940822;28;20209;-86
2023/09/07 05:59:35;;;;;;;1.98;0.70;;;11.00;99.90;;;;;;4925253;29;20308;-86
2023/09/07 06:02:03;;;;;;;7.72;1.00;;;11.20;99.90;;;;;;4932982;29;20528;-87
2023/09/07 06:04:31;;;;;;;2.58;0.65;;;11.20;99.90;;;;;;4935474;29;20220;-85
2023/09/07 06:06:59;;;;;;;4.95;1.00;;;11.40;99.90;;;;;;4917172;29;20240;-87
2023/09/07 06:09:28;;;;;;;4.88;0.82;;;11.40;99.90;;;;;;4942620;29;20250;-86
2023/09/07 06:11:56;;;;;;;3.42;0.80;;;11.50;99.90;;;;;;4929512;29;20205;-85
2023/09/07 06:14:24;;;;;;;3.70;0.70;;;11.50;99.90;;;;;;4902952;29;20256;-87
2023/09/07 06:16:52;;;;;;;3.42;0.80;;;11.50;99.90;;;;;;4922378;29;20195;-86
2023/09/07 06:19:20;;;;;;;4.60;0.88;;;11.70;99.90;;;;;;4933551;29;20217;-87
2023/09/07 06:21:47;;;;;;;5.68;0.90;;;11.70;99.90;;;;;;4936496;29;20207;-86
2023/09/07 06:24:15;;;;;;;6.45;0.88;;;11.70;99.90;;;;;;4941597;28;20287;-86
2023/09/07 06:26:44;;;;;;;1.15;0.63;;;12.00;99.90;;;;;;4935484;29;20205;-87
2023/09/07 06:29:12;;;;;;;2.50;0.90;;;12.10;99.90;;;;;;4923292;29;20207;-86
2023/09/07 06:31:39;;;;;;;2.22;0.88;;;12.10;99.90;;;;;;4933783;29;20616;-85
2023/09/07 06:34:07;;;;;;;4.10;0.80;;;12.20;99.90;;;;;;4925887;29;20208;-87
2023/09/07 06:36:34;;;;;;;6.15;1.02;;;12.20;99.90;;;;;;4944079;29;20208;-86
2023/09/07 06:39:16;;;;;;;2.28;0.65;;;12.40;99.90;;;;;;4946189;29;20229;-86
2023/09/07 06:41:47;;;;;;;2.30;0.90;;;12.40;99.90;;;;;;4940695;29;20640;-86
2023/09/07 06:44:17;;;;;;;3.67;0.90;;;12.60;99.90;;;;;;4926976;29;20201;-86
2023/09/07 06:46:45;;;;;;;1.23;0.60;;;12.70;99.90;;;;;;4933497;29;20715;-86
2023/09/07 06:49:13;;;;;;;2.58;0.70;;;12.70;99.90;;;;;;4917226;29;20220;-86
2023/09/07 06:51:41;;;;;;;5.45;1.10;;;12.80;99.90;;;;;;4941512;29;20680;-86
2023/09/07 06:54:08;;;;;;;1.77;0.80;;;12.90;99.90;;;;;;4930220;29;20201;-85
2023/09/07 06:56:37;;;;;;;1.92;0.65;;;12.80;99.90;;;;;;4928751;29;20237;-86
2023/09/07 06:59:04;;;;;;;4.38;0.70;;;12.90;99.90;;;;;;4942092;29;20229;-85
2023/09/07 07:01:32;;;;;;;6.15;0.90;;;13.00;99.90;;;;;;4930787;29;20192;-85
2023/09/07 07:03:59;;;;;;;6.03;1.15;;;13.10;99.90;;;;;;4932897;29;20192;-86
2023/09/07 07:06:27;;;;;;;2.00;0.90;;;13.10;99.90;;;;;;4934027;29;20331;-86
2023/09/07 07:08:55;;;;;;;6.65;0.90;;;13.10;99.90;;;;;;4925357;29;20197;-86
2023/09/07 07:11:23;;;;;;;1.48;0.90;;;13.20;99.90;;;;;;4944647;29;20201;-86
2023/09/07 07:13:50;;;;;;;5.20;1.10;;;13.20;99.90;;;;;;4930204;29;20213;-86
2023/09/07 07:16:18;;;;;;;4.32;1.17;;;13.30;99.90;;;;;;4918529;29;20256;-86
2023/09/07 07:18:46;;;;;;;3.70;1.42;;;13.30;99.90;;;;;;4905442;29;20221;-86
2023/09/07 07:21:15;;;;;;;3.90;1.20;;;13.40;99.90;;;;;;4925539;29;20284;-86
2023/09/07 07:23:43;;;;;;;11.25;1.95;;;13.50;99.90;;;;;;4935291;29;20200;-86
2023/09/07 07:26:10;;;;;;;6.38;0.98;;;13.70;99.90;;;;;;4934962;28;20201;-86
2023/09/07 07:28:38;;;;;;;4.03;1.02;;;13.70;99.90;;;;;;4937129;29;20204;-86
2023/09/07 07:31:10;;;;;;;8.00;1.45;;;13.60;99.90;;;;;;4921789;29;20295;-85
2023/09/07 07:33:40;;;;;;;4.82;1.55;;;13.60;99.90;;;;;;4920838;29;20196;-86
2023/09/07 07:36:08;;;;;;;5.53;1.20;;;13.80;99.90;;;;;;4926651;29;20573;-84
2023/09/07 07:38:36;;;;;;;1.80;0.70;;;13.80;99.90;;;;;;4933398;29;20701;-85
2023/09/07 07:41:05;;;;;;;2.80;0.80;;;13.90;99.90;;;;;;4942833;29;20189;-86
2023/09/07 07:43:33;;;;;;;5.32;0.68;;;14.00;99.90;;;;;;4928858;29;20200;-86
2023/09/07 07:46:02;;;;;;;4.43;0.77;;;14.00;99.90;;;;;;4942066;29;20246;-86
2023/09/07 07:48:31;;;;;;;5.53;0.75;;;13.90;99.90;;;;;;4905419;29;20244;-86
2023/09/07 07:51:05;;;;;;;3.72;0.50;;;13.80;99.90;;;;;;4947721;29;20646;-86
2023/09/07 07:53:39;;;;;;;2.83;0.60;;;13.70;99.90;;;;;;4931107;29;20200;-86
2023/09/07 07:56:18;;;;;;;4.63;0.98;;;13.60;99.90;;;;;;4952744;28;20277;-85
2023/09/07 07:58:48;;;;;;;5.22;1.10;;;13.60;99.90;;;;;;4942738;29;20219;-85
2023/09/07 08:01:18;;;;;;;5.55;0.80;;;13.70;99.90;;;;;;4933113;29;20292;-86
2023/09/07 08:03:47;;;;;;;4.13;0.90;;;13.80;99.90;;;;;;4931722;29;20207;-85
2023/09/07 08:06:15;;;;;;;2.33;0.77;;;14.10;99.90;;;;;;4908982;29;20193;-85
2023/09/07 08:47:11;;;;;;;5.95;0.90;;;14.70;99.90;;;;;;5060320;28;20593;-89
2023/09/07 08:49:40;;;;;;;1.85;0.70;;;14.90;99.90;;;;;;5063449;27;20217;-85
2023/09/07 08:52:09;;;;;;;3.50;0.68;;;14.90;99.90;;;;;;5055365;27;20184;-86
2023/09/07 08:54:38;;;;;;;4.75;0.90;;;15.00;99.90;;;;;;5051222;27;20225;-87
2023/09/07 08:57:07;;;;;;;1.95;0.70;;;15.30;99.90;;;;;;5036687;27;20696;-86
2023/09/07 08:59:36;;;;;;;7.20;1.08;;;15.20;99.90;;;;;;5098855;27;20201;-87
2023/09/07 09:02:09;;;;;;;1.48;0.60;;;15.30;99.90;;;;;;5070732;27;20189;-87
2023/09/07 09:04:37;;;;;;;5.38;0.80;;;15.30;99.90;;;;;;5058309;27;20185;-87
2023/09/07 09:07:04;;;;;;;2.70;0.82;;;15.30;99.90;;;;;;5059052;27;20280;-86
2023/09/07 09:09:32;;;;;;;7.05;1.00;;;15.30;99.90;;;;;;5099713;27;20192;-87
2023/09/07 09:12:11;;;;;;;4.45;0.88;;;15.40;99.90;;;;;;5054498;27;20189;-87
2023/09/07 09:14:47;;;;;;;3.53;0.82;;;15.50;99.90;;;;;;5055533;27;20186;-87
2023/09/07 09:17:15;;;;;;;3.53;0.70;;;15.70;99.90;;;;;;5044041;27;20197;-87
2023/09/07 09:19:43;;;;;;;2.47;0.73;;;15.70;99.90;;;;;;5080317;27;20198;-87
2023/09/07 09:22:12;;;;;;;5.28;0.70;;;15.50;99.90;;;;;;5069642;27;20185;-87
2023/09/07 09:24:40;;;;;;;5.53;0.70;;;15.50;99.90;;;;;;5067023;27;20197;-87
2023/09/07 09:27:08;;;;;;;1.65;0.52;;;15.40;99.90;;;;;;5030580;27;20247;-87
2023/09/07 09:29:36;;;;;;;3.72;0.73;;;15.50;99.90;;;;;;5052238;27;20740;-87
2023/09/07 09:32:04;;;;;;;1.70;0.65;;;15.60;99.90;;;;;;5060559;27;20188;-87
2023/09/07 09:34:36;;;;;;;1.88;0.75;;;15.70;99.90;;;;;;5066102;27;20194;-87
2023/09/07 09:37:12;;;;;;;1.08;0.60;;;15.90;99.90;;;;;;5047431;27;20242;-87
2023/09/07 09:39:42;;;;;;;4.15;0.93;;;15.70;99.90;;;;;;5074562;27;20199;-88
2023/09/07 09:42:10;;;;;;;8.45;1.10;;;15.80;99.90;;;;;;5057807;27;20268;-87
2023/09/07 09:44:39;;;;;;;8.75;0.90;;;15.80;99.90;;;;;;5069635;27;20620;-88
2023/09/07 09:47:09;;;;;;;5.45;0.57;;;15.90;99.90;;;;;;5045703;27;20218;-87
2023/09/07 09:49:38;;;;;;;3.47;0.80;;;15.90;99.90;;;;;;5066563;27;20614;-87
2023/09/07 09:52:07;;;;;;;3.55;0.82;;;15.90;99.90;;;;;;5067877;27;20221;-86
2023/09/07 09:54:36;;;;;;;2.38;0.85;;;15.90;99.90;;;;;;5034623;27;20178;-87
2023/09/07 09:57:03;;;;;;;2.42;0.70;;;16.20;99.90;;;;;;5052876;27;20190;-86
2023/09/07 09:59:31;;;;;;;2.20;0.90;;;16.10;99.90;;;;;;5099921;27;20281;-87
2023/09/07 10:02:01;;;;;;;4.43;0.90;;;16.10;99.90;;;;;;5035259;27;20187;-87
2023/09/07 10:04:29;;;;;;;6.75;0.70;;;16.20;99.90;;;;;;5068433;27;20186;-86
2023/09/07 10:07:05;;;;;;;3.65;0.90;;;16.30;99.90;;;;;;5108407;27;20291;-88
2023/09/07 10:09:33;;;;;;;2.33;0.70;;;16.40;99.90;;;;;;5043731;27;20679;-88
2023/09/07 10:12:04;;;;;;;1.10;0.70;;;16.50;99.90;;;;;;5034580;28;20281;-85
2023/09/07 10:14:45;;;;;;;4.30;0.82;;;16.50;99.90;;;;;;5040158;27;20186;-87
2023/09/07 10:17:22;;;;;;;4.03;0.82;;;16.40;99.90;;;;;;5023137;28;20238;-87
2023/09/07 10:20:01;;;;;;;1.70;0.82;;;16.40;99.90;;;;;;5031477;28;20193;-87
2023/09/07 10:22:30;;;;;;;4.03;0.70;;;16.50;99.90;;;;;;5038884;27;20655;-86
2023/09/07 10:24:59;;;;;;;2.05;0.80;;;16.80;99.90;;;;;;5031892;27;20222;-87
2023/09/07 10:27:37;;;;;;;2.13;0.80;;;16.90;99.90;;;;;;5049119;27;20194;-88
2023/09/07 10:30:13;;;;;;;3.08;0.68;;;17.00;99.90;;;;;;5041690;27;20190;-87
2023/09/07 10:32:41;;;;;;;2.83;0.65;;;17.00;99.90;;;;;;5039621;27;20205;-87
2023/09/07 10:35:13;;;;;;;1.95;0.80;;;17.00;99.90;;;;;;5052776;28;20213;-87
2023/09/07 10:37:43;;;;;;;3.30;0.75;;;16.90;99.90;;;;;;5022489;28;20281;-87
2023/09/07 10:40:11;;;;;;;3.70;0.85;;;17.00;99.90;;;;;;5029358;27;20194;-86
2023/09/07 10:42:39;;;;;;;1.83;0.80;;;17.10;99.90;;;;;;5056380;27;20198;-87
2023/09/07 10:45:12;;;;;;;1.65;0.65;;;17.20;99.90;;;;;;5068329;27;20345;-86
2023/09/07 10:47:45;;;;;;;6.70;0.88;;;17.20;99.90;;;;;;5054966;27;20190;-87
2023/09/07 10:50:13;;;;;;;3.45;0.90;;;17.30;99.90;;;;;;5057489;27;20186;-87
2023/09/07 10:52:41;;;;;;;4.32;0.80;;;17.40;99.90;;;;;;5061007;27;20194;-87
2023/09/07 10:55:10;;;;;;;2.67;0.77;;;17.60;99.90;;;;;;5058997;27;20674;-87
2023/09/07 10:57:45;;;;;;;1.80;0.80;;;17.70;99.90;;;;;;5062534;27;20182;-87
2023/09/07 11:00:14;;;;;;;1.95;0.70;;;17.80;99.90;;;;;;5021323;27;20194;-87
2023/09/07 11:02:43;;;;;;;2.63;0.68;;;17.80;99.90;;;;;;5065281;27;20194;-87
2023/09/07 11:05:11;;;;;;;4.35;0.90;;;17.60;99.90;;;;;;5046754;27;20207;-87
2023/09/07 11:07:40;;;;;;;1.85;0.80;;;17.90;99.90;;;;;;5072951;27;20186;-87
2023/09/07 11:10:09;;;;;;;3.47;0.90;;;18.10;99.90;;;;;;5052486;27;20674;-86
2023/09/07 11:12:38;;;;;;;4.88;0.80;;;18.20;99.90;;;;;;5055775;27;20238;-86
2023/09/07 11:15:10;;;;;;;3.03;0.93;;;18.20;99.90;;;;;;5039304;27;20201;-86
2023/09/07 11:17:42;;;;;;;2.35;0.77;;;18.40;99.90;;;;;;5055199;27;20181;-86
2023/09/07 11:20:10;;;;;;;0.85;0.70;;;18.30;99.90;;;;;;5063223;27;20690;-86
2023/09/07 11:22:38;;;;;;;3.72;1.08;;;18.30;99.90;;;;;;5044167;27;20693;-86
2023/09/07 11:25:25;;;;;;;7.68;0.90;;;18.10;99.90;;;;;;5044381;27;20273;-86
2023/09/07 11:27:57;;;;;;;8.40;1.17;;;18.50;99.90;;;;;;5032512;27;20193;-86
2023/09/07 11:30:25;;;;;;;4.55;0.88;;;18.70;99.90;;;;;;5031053;28;20667;-86
2023/09/07 11:33:07;;;;;;;4.05;0.70;;;18.70;99.90;;;;;;5020044;28;20190;-85
2023/09/07 11:35:35;;;;;;;2.67;1.00;;;18.90;99.90;;;;;;5037998;27;20232;-85
2023/09/07 11:38:06;;;;;;;4.28;1.00;;;18.60;99.90;;;;;;5067318;27;20186;-87
2023/09/07 11:40:34;;;;;;;1.98;1.00;;;18.80;99.90;;;;;;5088776;27;20241;-86
2023/09/07 11:43:01;;;;;;;3.22;0.70;;;19.00;99.90;;;;;;5034222;27;20296;-85
2023/09/07 11:45:29;;;;;;;2.45;0.90;;;19.00;99.90;;;;;;5043301;27;20229;-86
2023/09/07 11:47:57;;;;;;;4.18;1.08;;;19.20;99.90;;;;;;5038387;27;20190;-86
2023/09/07 11:50:25;;;;;;;1.45;0.77;;;19.10;99.90;;;;;;5043628;27;20582;-85
2023/09/07 11:52:53;;;;;;;5.97;1.05;;;18.50;99.90;;;;;;5028848;27;20201;-85
2023/09/07 11:55:20;;;;;;;2.05;0.75;;;18.80;99.90;;;;;;5036715;27;20190;-86
2023/09/07 11:57:48;;;;;;;3.00;1.00;;;19.30;99.90;;;;;;5026052;28;20189;-86
2023/09/07 12:00:16;;;;;;;3.63;0.93;;;19.30;99.90;;;;;;5041876;27;20278;-86
2023/09/07 12:02:44;;;;;;;1.80;0.82;;;19.10;99.90;;;;;;5041774;28;20269;-85
2023/09/07 12:05:14;;;;;;;5.43;0.88;;;19.30;99.90;;;;;;5044034;28;20209;-85
2023/09/07 12:07:45;;;;;;;2.63;0.88;;;19.50;99.90;;;;;;5040929;28;20207;-85
2023/09/07 12:10:13;;;;;;;4.63;0.90;;;19.60;99.90;;;;;;5026182;27;20193;-84
2023/09/07 12:12:41;;;;;;;3.80;0.90;;;19.50;99.90;;;;;;5069319;27;20190;-86
2023/09/07 12:15:11;;;;;;;3.28;0.85;;;19.80;99.90;;;;;;5070700;27;20174;-85
2023/09/07 12:17:40;;;;;;;2.90;0.77;;;19.80;99.90;;;;;;5064446;27;20198;-86
2023/09/07 12:20:10;;;;;;;1.58;0.77;;;19.70;99.90;;;;;;5068421;27;20229;-85
2023/09/07 12:22:38;;;;;;;4.70;1.00;;;19.60;99.90;;;;;;5047717;27;20202;-85
2023/09/07 12:25:07;;;;;;;1.70;0.75;;;19.60;99.90;;;;;;5054597;27;20202;-85
2023/09/07 12:27:43;;;;;;;1.75;0.80;;;19.80;99.90;;;;;;5067257;27;20205;-84
2023/09/07 12:30:23;;;;;;;3.67;0.80;;;19.60;99.90;;;;;;5055541;27;20685;-84
2023/09/07 12:32:52;;;;;;;1.63;0.80;;;19.80;99.90;;;;;;5051058;28;20655;-85
2023/09/07 12:35:20;;;;;;;1.30;0.60;;;19.80;99.90;;;;;;5040434;28;20196;-85
2023/09/07 12:37:48;;;;;;;1.90;0.73;;;20.10;99.90;;;;;;5029464;28;20757;-84
2023/09/07 12:40:16;;;;;;;4.18;0.77;;;20.20;99.90;;;;;;5057644;28;20254;-85
2023/09/07 12:42:45;;;;;;;1.88;0.80;;;20.00;99.90;;;;;;5067433;28;20189;-85
2023/09/07 12:45:16;;;;;;;3.25;0.95;;;20.10;99.90;;;;;;5072688;27;20257;-85
2023/09/07 12:47:43;;;;;;;1.60;0.80;;;20.10;99.90;;;;;;5075989;28;20202;-85
2023/09/07 12:50:12;;;;;;;3.08;0.80;;;20.10;99.90;;;;;;5054145;28;20193;-86
2023/09/07 12:52:41;;;;;;;5.75;0.80;;;20.20;99.90;;;;;;5046022;28;20562;-85
2023/09/07 12:55:09;;;;;;;3.75;0.80;;;20.10;99.90;;;;;;5005795;28;20219;-85
2023/09/07 12:57:37;;;;;;;3.83;0.68;;;20.20;99.90;;;;;;5043274;28;20667;-85
2023/09/07 13:00:06;;;;;;;2.22;0.60;;;20.10;99.90;;;;;;5031894;28;20224;-85
2023/09/07 13:02:33;;;;;;;2.03;0.68;;;20.40;99.90;;;;;;5045104;28;20240;-85
2023/09/07 13:05:05;;;;;;;3.25;0.70;;;20.60;99.90;;;;;;5038220;28;20668;-85
2023/09/07 13:07:34;;;;;;;2.00;0.88;;;20.50;99.90;;;;;;5043711;28;20587;-86
2023/09/07 13:10:04;;;;;;;5.30;0.70;;;20.40;99.90;;;;;;5040880;28;20174;-85
2023/09/07 13:12:32;;;;;;;2.10;0.80;;;20.50;99.90;;;;;;5028639;28;20197;-85
2023/09/07 13:15:00;;;;;;;1.80;0.80;;;20.60;99.90;;;;;;5032880;28;20252;-85
2023/09/07 13:17:28;;;;;;;3.00;0.70;;;20.40;99.90;;;;;;5040187;28;20621;-86
2023/09/07 13:19:56;;;;;;;2.03;0.75;;;20.60;99.90;;;;;;5046917;28;20190;-85
2023/09/07 13:22:23;;;;;;;1.10;0.70;;;20.80;99.90;;;;;;5059774;27;20554;-85
2023/09/07 13:24:52;;;;;;;1.90;0.60;;;20.80;99.90;;;;;;5050720;27;20194;-85
2023/09/07 13:27:19;;;;;;;2.20;0.80;;;20.70;99.90;;;;;;5032445;27;20202;-85
2023/09/07 13:29:47;;;;;;;2.60;0.70;;;20.80;99.90;;;;;;5050182;27;20190;-85
2023/09/07 13:32:15;;;;;;;1.88;0.70;;;20.80;99.90;;;;;;5026754;27;20197;-85
2023/09/07 13:34:43;;;;;;;1.75;0.82;;;20.90;99.90;;;;;;5037184;27;20186;-86
2023/09/07 13:37:14;;;;;;;3.67;0.65;;;20.80;99.90;;;;;;5061350;27;20197;-86
2023/09/07 13:39:41;;;;;;;1.95;0.60;;;20.80;99.90;;;;;;5025360;28;20285;-86